createdAt,value
2022-10-08T00:01:15.579Z,99966.28
2022-10-08T00:03:50.445Z,99971.13
2022-10-08T00:06:37.735Z,99971.69
2022-10-08T00:09:08.802Z,99974.75
2022-10-08T00:11:40.456Z,99967.47
2022-10-08T00:14:09.260Z,99970.53
2022-10-08T00:16:41.360Z,99967.78
2022-10-08T00:19:14.723Z,99964.00
2022-10-08T00:21:44.118Z,99965.53
2022-10-08T00:24:14.729Z,99966.53
2022-10-08T00:26:44.790Z,99967.81
2022-10-08T00:29:16.959Z,99965.81
2022-10-08T00:31:46.118Z,99959.75
2022-10-08T00:34:18.029Z,99964.53
2022-10-08T00:36:45.345Z,99959.00
2022-10-08T00:39:15.397Z,99953.97
2022-10-08T00:41:48.865Z,99947.16
2022-10-08T00:44:46.755Z,99958.00
2022-10-08T00:47:19.384Z,99951.25
2022-10-08T00:49:49.320Z,99951.25
2022-10-08T00:52:18.524Z,99958.50
2022-10-08T00:54:46.597Z,99955.53
2022-10-08T00:57:13.552Z,99946.75
2022-10-08T00:59:40.636Z,99959.06
2022-10-08T01:02:09.046Z,99950.31
2022-10-08T01:04:38.292Z,99952.34
2022-10-08T01:07:20.290Z,99954.66
2022-10-08T01:10:02.730Z,99953.63
2022-10-08T01:12:53.388Z,99947.31
2022-10-08T01:15:28.151Z,99946.09
2022-10-08T01:18:14.342Z,99947.63
2022-10-08T01:20:58.349Z,99953.41
2022-10-08T01:23:37.575Z,99948.38
2022-10-08T01:26:16.632Z,99952.16
2022-10-08T01:28:51.738Z,99951.88
2022-10-08T01:31:27.981Z,99943.78
2022-10-08T01:34:01.817Z,99945.59
2022-10-08T01:36:35.622Z,99944.06
2022-10-08T01:39:08.350Z,99937.53
2022-10-08T01:41:35.814Z,99934.66
2022-10-08T01:44:07.324Z,99936.16
2022-10-08T01:46:38.500Z,99938.16
2022-10-08T01:49:10.939Z,99927.31
2022-10-08T01:51:45.308Z,99922.72
2022-10-08T01:54:16.363Z,99933.72
2022-10-08T01:56:46.225Z,99931.88
2022-10-08T01:59:37.675Z,99929.56
2022-10-08T02:02:14.662Z,99921.72
2022-10-08T02:04:45.045Z,99925.19
2022-10-08T02:07:18.544Z,99924.88
2022-10-08T02:09:51.400Z,99928.56
2022-10-08T02:12:20.372Z,99928.22
2022-10-08T02:14:51.177Z,99931.41
2022-10-08T02:17:29.280Z,99924.25
2022-10-08T02:19:56.949Z,99932.22
2022-10-08T02:22:38.263Z,99927.28
2022-10-08T02:25:14.596Z,99925.63
2022-10-08T02:27:59.167Z,99925.03
2022-10-08T02:30:32.227Z,99920.25
2022-10-08T02:33:05.260Z,99925.81
2022-10-08T02:35:40.098Z,99918.81
2022-10-08T02:38:16.929Z,99920.44
2022-10-08T02:40:48.898Z,99919.53
2022-10-08T02:43:26.625Z,99914.34
2022-10-08T02:46:01.801Z,99917.16
2022-10-08T02:48:34.102Z,99914.78
2022-10-08T02:51:08.120Z,99923.97
2022-10-08T02:53:38.165Z,99924.63
2022-10-08T02:56:28.870Z,99926.56
2022-10-08T02:58:58.988Z,99925.41
2022-10-08T03:01:54.298Z,99921.22
2022-10-08T03:04:36.462Z,99924.03
2022-10-08T03:07:05.245Z,99924.84
2022-10-08T03:09:36.939Z,99933.16
2022-10-08T03:12:04.461Z,99929.19
2022-10-08T03:14:35.186Z,99926.91
2022-10-08T03:17:02.455Z,99924.66
2022-10-08T03:19:31.768Z,99922.66
2022-10-08T03:21:58.666Z,99932.69
2022-10-08T03:24:25.679Z,99933.69
2022-10-08T03:26:55.324Z,99930.88
2022-10-08T03:29:22.368Z,99933.34
2022-10-08T03:31:49.807Z,99934.56
2022-10-08T03:34:16.889Z,99934.44
2022-10-08T03:36:43.811Z,99935.91
2022-10-08T03:39:11.747Z,99932.31
2022-10-08T03:41:39.069Z,99934.50
2022-10-08T03:44:10.854Z,99935.66
2022-10-08T03:46:38.272Z,99941.38
2022-10-08T03:49:05.462Z,99942.31
2022-10-08T03:51:32.614Z,99944.75
2022-10-08T03:53:59.540Z,99938.63
2022-10-08T03:56:26.870Z,99942.06
2022-10-08T03:59:00.897Z,99942.72
2022-10-08T04:01:29.159Z,99943.84
2022-10-08T04:03:56.218Z,99942.97
2022-10-08T04:06:23.540Z,99948.84
2022-10-08T04:08:50.576Z,99946.63
2022-10-08T04:11:18.262Z,99947.00
2022-10-08T04:13:45.743Z,99943.09
2022-10-08T04:16:15.084Z,99942.19
2022-10-08T04:18:42.689Z,99944.34
2022-10-08T04:21:13.220Z,99952.84
2022-10-08T04:23:41.570Z,99948.22
2022-10-08T04:26:12.626Z,99944.94
2022-10-08T04:28:41.484Z,99948.91
2022-10-08T04:31:12.626Z,99948.59
2022-10-08T04:33:42.092Z,99942.50
2022-10-08T04:36:14.751Z,99949.03
2022-10-08T04:38:43.119Z,99944.13
2022-10-08T04:41:16.220Z,99947.69
2022-10-08T04:43:44.619Z,99948.09
2022-10-08T04:46:14.564Z,99952.94
2022-10-08T04:48:46.645Z,99953.34
2022-10-08T04:51:16.637Z,99945.53
2022-10-08T04:53:43.921Z,99951.78
2022-10-08T04:56:17.266Z,99947.47
2022-10-08T04:58:45.168Z,99944.94
2022-10-08T05:01:14.699Z,99936.59
2022-10-08T05:03:44.935Z,99944.38
2022-10-08T05:06:14.887Z,99947.38
2022-10-08T05:08:42.162Z,99950.41
2022-10-08T05:11:09.449Z,99945.06
2022-10-08T05:13:41.293Z,99945.28
2022-10-08T05:16:13.712Z,99951.03
2022-10-08T05:18:43.269Z,99943.22
2022-10-08T05:21:12.882Z,99950.16
2022-10-08T05:23:40.639Z,99949.94
2022-10-08T05:26:16.655Z,99949.72
2022-10-08T05:28:47.117Z,99950.78
2022-10-08T05:31:16.094Z,99948.00
2022-10-08T05:33:44.223Z,99947.56
2022-10-08T05:36:17.885Z,99956.34
2022-10-08T05:38:45.643Z,99953.13
2022-10-08T05:41:21.757Z,99961.91
2022-10-08T05:43:50.038Z,99958.38
2022-10-08T05:46:17.940Z,99972.50
2022-10-08T05:48:48.135Z,99968.66
2022-10-08T05:51:17.334Z,99977.00
2022-10-08T05:53:47.212Z,99974.13
2022-10-08T05:56:16.891Z,99991.03
2022-10-08T05:58:44.785Z,99983.66
2022-10-08T06:01:17.938Z,99989.66
2022-10-08T06:03:49.531Z,100001.44
2022-10-08T06:06:17.188Z,99993.56
2022-10-08T06:08:46.971Z,100002.31
2022-10-08T06:11:14.306Z,100012.09
2022-10-08T06:13:41.271Z,100009.41
2022-10-08T06:16:10.876Z,100007.38
2022-10-08T06:18:40.946Z,100012.31
2022-10-08T06:21:14.244Z,100012.00
2022-10-08T06:23:46.720Z,100017.28
2022-10-08T06:26:13.761Z,100025.00
2022-10-08T06:28:41.227Z,100027.38
2022-10-08T06:31:11.915Z,100020.94
2022-10-08T06:33:39.199Z,100022.56
2022-10-08T06:36:08.379Z,100026.94
2022-10-08T06:38:35.482Z,100030.47
2022-10-08T06:41:04.751Z,100031.84
2022-10-08T06:43:31.840Z,100029.94
2022-10-08T06:46:00.304Z,100034.31
2022-10-08T06:48:27.672Z,100033.78
2022-10-08T06:51:04.987Z,100047.69
2022-10-08T06:53:35.313Z,100039.78
2022-10-08T06:56:05.309Z,100044.25
2022-10-08T06:58:34.348Z,100043.50
2022-10-08T07:01:09.079Z,100044.00
2022-10-08T07:03:37.204Z,100048.03
2022-10-08T07:06:10.197Z,100053.53
2022-10-08T07:08:37.992Z,100050.88
2022-10-08T07:11:10.263Z,100045.63
2022-10-08T07:13:38.826Z,100048.19
2022-10-08T07:16:20.301Z,100051.41
2022-10-08T07:18:49.885Z,100054.19
2022-10-08T07:21:18.729Z,100051.97
2022-10-08T07:23:45.880Z,100055.59
2022-10-08T07:26:23.717Z,100057.44
2022-10-08T07:28:52.436Z,100060.09
2022-10-08T07:31:22.691Z,100060.97
2022-10-08T07:33:50.225Z,100064.16
2022-10-08T07:36:19.895Z,100067.38
2022-10-08T07:38:48.116Z,100068.03
2022-10-08T07:41:15.119Z,100068.69
2022-10-08T07:43:43.184Z,100068.69
2022-10-08T07:46:11.937Z,100063.50
2022-10-08T07:48:39.795Z,100063.50
2022-10-08T07:51:20.659Z,100079.91
2022-10-08T07:53:50.223Z,100083.66
2022-10-08T07:56:19.623Z,100069.59
2022-10-08T07:58:47.491Z,100074.88
2022-10-08T08:01:18.879Z,100075.28
2022-10-08T08:03:51.802Z,100084.19
2022-10-08T08:06:18.980Z,100075.81
2022-10-08T08:08:46.146Z,100079.59
2022-10-08T08:11:15.593Z,100080.75
2022-10-08T08:13:46.213Z,100073.94
2022-10-08T08:16:19.636Z,100082.63
2022-10-08T08:18:49.834Z,100082.06
2022-10-08T08:21:22.058Z,100082.50
2022-10-08T08:23:51.950Z,100082.22
2022-10-08T08:26:28.858Z,100076.72
2022-10-08T08:28:58.404Z,100084.69
2022-10-08T08:31:29.755Z,100085.72
2022-10-08T08:34:02.826Z,100090.41
2022-10-08T08:36:33.221Z,100088.34
2022-10-08T08:39:00.992Z,100085.53
2022-10-08T08:41:34.081Z,100089.09
2022-10-08T08:44:29.149Z,100092.59
2022-10-08T08:47:01.893Z,100092.41
2022-10-08T08:49:35.077Z,100092.31
2022-10-08T08:52:04.756Z,100092.38
2022-10-08T08:54:34.466Z,100093.16
2022-10-08T08:57:16.249Z,100095.22
2022-10-08T08:59:47.253Z,100093.31
2022-10-08T09:02:28.759Z,100091.28
2022-10-08T09:05:03.474Z,100094.53
2022-10-08T09:07:45.633Z,100091.53
2022-10-08T09:10:23.694Z,100087.66
2022-10-08T09:12:53.711Z,100083.75
2022-10-08T09:15:29.350Z,100097.09
2022-10-08T09:17:56.398Z,100083.47
2022-10-08T09:20:25.804Z,100087.41
2022-10-08T09:22:54.289Z,100096.94
2022-10-08T09:25:24.920Z,100098.84
2022-10-08T09:27:57.913Z,100098.44
2022-10-08T09:30:24.930Z,100096.38
2022-10-08T09:32:58.032Z,100096.97
2022-10-08T09:35:25.550Z,100094.91
2022-10-08T09:37:53.059Z,100091.13
2022-10-08T09:40:26.493Z,100094.91
2022-10-08T09:43:17.488Z,100097.69
2022-10-08T09:45:47.462Z,100097.13
2022-10-08T09:48:22.692Z,100093.50
2022-10-08T09:50:55.872Z,100088.63
2022-10-08T09:53:25.110Z,100099.06
2022-10-08T09:56:02.759Z,100096.84
2022-10-08T09:58:35.944Z,100097.59
2022-10-08T10:01:17.471Z,100107.78
2022-10-08T10:03:51.187Z,100101.94
2022-10-08T10:06:46.407Z,100096.13
2022-10-08T10:09:40.605Z,100101.34
2022-10-08T10:12:26.495Z,100095.09
2022-10-08T10:15:11.159Z,100089.72
2022-10-08T10:17:54.355Z,100084.53
2022-10-08T10:20:34.853Z,100083.69
2022-10-08T10:23:42.903Z,100078.19
2022-10-08T10:26:21.846Z,100075.84
2022-10-08T10:28:55.119Z,100069.91
2022-10-08T10:31:33.774Z,100071.59
2022-10-08T10:34:20.951Z,100055.66
2022-10-08T10:36:52.405Z,100063.22
2022-10-08T10:39:30.723Z,100052.34
2022-10-08T10:42:16.195Z,100044.41
2022-10-08T10:44:53.901Z,100040.56
2022-10-08T10:47:31.776Z,100036.56
2022-10-08T10:50:02.082Z,100027.09
2022-10-08T10:52:38.627Z,100026.91
2022-10-08T10:55:18.569Z,100022.09
2022-10-08T10:58:04.314Z,100024.91
2022-10-08T11:00:49.655Z,100018.28
2022-10-08T11:03:47.706Z,100017.28
2022-10-08T11:06:38.776Z,100018.22
2022-10-08T11:09:17.838Z,100015.31
2022-10-08T11:12:01.705Z,100004.06
2022-10-08T11:14:54.492Z,100001.56
2022-10-08T11:17:25.085Z,100007.38
2022-10-08T11:19:58.252Z,100007.91
2022-10-08T11:22:45.009Z,100005.03
2022-10-08T11:25:20.888Z,99999.81
2022-10-08T11:27:57.017Z,99999.56
2022-10-08T11:30:44.657Z,99998.72
2022-10-08T11:33:16.089Z,99992.72
2022-10-08T11:36:05.219Z,99997.34
2022-10-08T11:38:43.702Z,99990.16
2022-10-08T11:41:21.410Z,99983.28
2022-10-08T11:44:01.794Z,99988.19
2022-10-08T11:46:31.315Z,99975.91
2022-10-08T11:49:27.088Z,99982.97
2022-10-08T11:52:12.275Z,99976.69
2022-10-08T11:54:41.998Z,99982.31
2022-10-08T11:57:19.800Z,99972.03
2022-10-08T12:00:02.035Z,99964.63
2022-10-08T12:02:39.262Z,99960.41
2022-10-08T12:05:18.571Z,99957.22
2022-10-08T12:08:00.069Z,99948.91
2022-10-08T12:10:34.936Z,99957.19
2022-10-08T12:13:26.588Z,99941.72
2022-10-08T12:15:54.907Z,99948.25
2022-10-08T12:18:26.440Z,99944.81
2022-10-08T12:21:20.526Z,99948.63
2022-10-08T12:23:47.942Z,99933.38
2022-10-08T12:26:16.617Z,99937.91
2022-10-08T12:28:43.780Z,99938.97
2022-10-08T12:31:25.279Z,99934.25
2022-10-08T12:33:57.950Z,99934.88
2022-10-08T12:36:59.271Z,99927.94
2022-10-08T12:39:43.145Z,99927.50
2022-10-08T12:42:23.456Z,99929.03
2022-10-08T12:45:18.625Z,99921.19
2022-10-08T12:48:04.573Z,99924.03
2022-10-08T12:51:07.113Z,99933.75
2022-10-08T12:53:34.452Z,99920.22
2022-10-08T12:56:04.332Z,99920.72
2022-10-08T12:58:37.587Z,99928.00
2022-10-08T13:01:07.007Z,99924.97
2022-10-08T13:03:33.985Z,99919.25
2022-10-08T13:06:31.781Z,99913.50
2022-10-08T13:09:01.123Z,99911.47
2022-10-08T13:11:30.351Z,99907.47
2022-10-08T13:13:57.344Z,99905.69
2022-10-08T13:16:26.809Z,99907.28
2022-10-08T13:18:57.521Z,99901.00
2022-10-08T13:21:32.496Z,99907.81
2022-10-08T13:24:02.022Z,99898.19
2022-10-08T13:26:37.990Z,99912.16
2022-10-08T13:29:23.682Z,99913.63
2022-10-08T13:32:04.439Z,99901.28
2022-10-08T13:34:31.506Z,99904.09
2022-10-08T13:37:00.689Z,99900.22
2022-10-08T13:39:34.736Z,99902.59
2022-10-08T13:42:07.321Z,99897.41
2022-10-08T13:44:35.118Z,99899.09
2022-10-08T13:47:03.891Z,99897.16
2022-10-08T13:49:33.092Z,99889.56
2022-10-08T13:52:01.293Z,99891.88
2022-10-08T13:54:31.814Z,99898.69
2022-10-08T13:56:59.491Z,99895.81
2022-10-08T13:59:30.478Z,99895.81
2022-10-08T14:01:58.536Z,99889.44
2022-10-08T14:04:25.610Z,99898.72
2022-10-08T14:06:58.308Z,99897.72
2022-10-08T14:09:28.619Z,99895.06
2022-10-08T14:11:59.451Z,99890.19
2022-10-08T14:14:27.670Z,99889.75
2022-10-08T14:16:54.676Z,99893.47
2022-10-08T14:19:21.731Z,99895.91
2022-10-08T14:21:55.220Z,99894.56
2022-10-08T14:24:24.666Z,99895.56
2022-10-08T14:26:51.829Z,99905.19
2022-10-08T14:29:24.894Z,99895.81
2022-10-08T14:31:51.992Z,99885.34
2022-10-08T14:34:19.225Z,99890.19
2022-10-08T14:36:46.656Z,99881.03
2022-10-08T14:39:13.782Z,99884.84
2022-10-08T14:41:40.940Z,99878.00
2022-10-08T14:44:08.194Z,99879.31
2022-10-08T14:46:35.448Z,99882.31
2022-10-08T14:49:04.856Z,99881.03
2022-10-08T14:51:38.420Z,99886.66
2022-10-08T14:54:07.213Z,99885.41
2022-10-08T14:56:43.765Z,99878.78
2022-10-08T14:59:11.335Z,99881.53
2022-10-08T15:01:39.336Z,99878.06
2022-10-08T15:04:07.241Z,99879.97
2022-10-08T15:06:38.200Z,99880.47
2022-10-08T15:09:05.573Z,99876.59
2022-10-08T15:11:32.799Z,99871.13
2022-10-08T15:13:59.968Z,99871.97
2022-10-08T15:16:29.403Z,99868.63
2022-10-08T15:18:56.589Z,99874.25
2022-10-08T15:21:23.552Z,99874.31
2022-10-08T15:23:50.884Z,99881.69
2022-10-08T15:26:18.565Z,99880.03
2022-10-08T15:28:46.461Z,99879.16
2022-10-08T15:31:16.129Z,99883.75
2022-10-08T15:33:48.555Z,99884.53
2022-10-08T15:36:26.340Z,99877.72
2022-10-08T15:39:12.047Z,99879.00
2022-10-08T15:41:42.212Z,99880.19
2022-10-08T15:44:15.453Z,99887.38
2022-10-08T15:46:42.555Z,99890.22
2022-10-08T15:49:09.507Z,99894.25
2022-10-08T15:51:36.627Z,99893.69
2022-10-08T15:54:09.255Z,99889.09
2022-10-08T15:56:39.685Z,99899.00
2022-10-08T15:59:09.813Z,99894.16
2022-10-08T16:01:37.254Z,99893.63
2022-10-08T16:04:04.782Z,99888.22
2022-10-08T16:06:35.901Z,99883.03
2022-10-08T16:09:04.057Z,99886.56
2022-10-08T16:11:34.989Z,99886.25
2022-10-08T16:14:04.533Z,99877.09
2022-10-08T16:16:31.808Z,99889.97
2022-10-08T16:19:04.154Z,99889.06
2022-10-08T16:21:33.733Z,99884.75
2022-10-08T16:24:02.027Z,99889.41
2022-10-08T16:26:34.614Z,99892.94
2022-10-08T16:29:05.383Z,99903.38
2022-10-08T16:31:34.704Z,99894.78
2022-10-08T16:34:04.052Z,99899.78
2022-10-08T16:36:33.994Z,99902.91
2022-10-08T16:39:05.176Z,99906.78
2022-10-08T16:41:34.240Z,99906.03
2022-10-08T16:44:12.015Z,99904.31
2022-10-08T16:46:43.367Z,99914.28
2022-10-08T16:49:13.708Z,99913.13
2022-10-08T16:51:41.320Z,99916.13
2022-10-08T16:54:12.827Z,99925.56
2022-10-08T16:56:43.733Z,99924.53
2022-10-08T16:59:13.947Z,99928.59
2022-10-08T17:01:43.206Z,99925.59
2022-10-08T17:04:12.027Z,99930.94
2022-10-08T17:06:39.185Z,99926.81
2022-10-08T17:09:06.869Z,99938.44
2022-10-08T17:11:35.706Z,99948.38
2022-10-08T17:14:03.638Z,99948.66
2022-10-08T17:16:31.754Z,99950.28
2022-10-08T17:19:00.467Z,99947.63
2022-10-08T17:21:28.932Z,99954.69
2022-10-08T17:23:59.981Z,99955.03
2022-10-08T17:26:29.084Z,99961.94
2022-10-08T17:28:57.306Z,99962.13
2022-10-08T17:31:26.825Z,99971.06
2022-10-08T17:33:59.680Z,99970.22
2022-10-08T17:36:32.862Z,99965.31
2022-10-08T17:39:01.713Z,99969.31
2022-10-08T17:41:38.309Z,99976.31
2022-10-08T17:44:08.235Z,99971.19
2022-10-08T17:46:46.277Z,99988.56
2022-10-08T17:49:16.754Z,99984.25
2022-10-08T17:51:45.364Z,99989.44
2022-10-08T17:54:17.526Z,99984.41
2022-10-08T17:56:45.602Z,99981.41
2022-10-08T17:59:18.138Z,99990.31
2022-10-08T18:01:46.603Z,99992.88
2022-10-08T18:04:18.051Z,99993.22
2022-10-08T18:06:48.142Z,100000.69
2022-10-08T18:09:19.221Z,100000.28
2022-10-08T18:11:51.155Z,99986.47
2022-10-08T18:14:19.649Z,99995.03
2022-10-08T18:16:48.631Z,99992.47
2022-10-08T18:19:17.047Z,99992.00
2022-10-08T18:21:47.545Z,99993.94
2022-10-08T18:24:16.102Z,99995.03
2022-10-08T18:26:43.930Z,99995.91
2022-10-08T18:29:13.992Z,99999.84
2022-10-08T18:31:43.306Z,100005.03
2022-10-08T18:34:14.413Z,100013.16
2022-10-08T18:36:41.598Z,100012.41
2022-10-08T18:39:12.808Z,100012.00
2022-10-08T18:41:43.635Z,100009.00
2022-10-08T18:44:18.832Z,100014.69
2022-10-08T18:46:47.507Z,100013.81
2022-10-08T18:49:21.201Z,100013.50
2022-10-08T18:51:50.656Z,100017.44
2022-10-08T18:54:20.922Z,100021.16
2022-10-08T18:56:49.132Z,100017.06
2022-10-08T18:59:19.163Z,100027.09
2022-10-08T19:01:49.360Z,100024.09
2022-10-08T19:04:22.643Z,100029.16
2022-10-08T19:06:53.688Z,100036.97
2022-10-08T19:09:22.070Z,100043.94
2022-10-08T19:11:53.012Z,100040.88
2022-10-08T19:14:22.235Z,100050.53
2022-10-08T19:16:50.454Z,100048.16
2022-10-08T19:19:22.672Z,100045.09
2022-10-08T19:21:53.966Z,100059.25
2022-10-08T19:24:26.492Z,100065.72
2022-10-08T19:26:57.680Z,100067.56
2022-10-08T19:29:29.666Z,100068.66
2022-10-08T19:31:58.828Z,100074.38
2022-10-08T19:34:28.079Z,100076.22
2022-10-08T19:36:57.613Z,100081.94
2022-10-08T19:39:32.182Z,100084.00
2022-10-08T19:42:01.145Z,100092.19
2022-10-08T19:44:29.378Z,100094.56
2022-10-08T19:46:57.443Z,100104.03
2022-10-08T19:49:26.008Z,100107.91
2022-10-08T19:51:56.136Z,100106.75
2022-10-08T19:54:24.128Z,100120.09
2022-10-08T19:56:51.690Z,100110.91
2022-10-08T19:59:18.906Z,100114.91
2022-10-08T20:01:46.078Z,100114.69
2022-10-08T20:04:14.248Z,100127.50
2022-10-08T20:06:42.890Z,100124.06
2022-10-08T20:09:12.453Z,100126.66
2022-10-08T20:11:41.875Z,100134.06
2022-10-08T20:14:10.487Z,100143.00
2022-10-08T20:16:40.705Z,100144.06
2022-10-08T20:19:19.555Z,100153.41
2022-10-08T20:21:47.982Z,100165.31
2022-10-08T20:24:15.936Z,100162.31
2022-10-08T20:26:44.332Z,100167.13
2022-10-08T20:29:14.400Z,100173.78
2022-10-08T20:31:49.747Z,100179.03
2022-10-08T20:34:19.659Z,100179.38
2022-10-08T20:36:47.613Z,100177.84
2022-10-08T20:39:16.322Z,100177.69
2022-10-08T20:41:46.090Z,100177.47
2022-10-08T20:44:13.803Z,100180.47
2022-10-08T20:46:41.194Z,100178.94
2022-10-08T20:49:11.095Z,100191.06
2022-10-08T20:51:44.637Z,100194.59
2022-10-08T20:54:14.451Z,100198.34
2022-10-08T20:56:42.541Z,100201.16
2022-10-08T20:59:13.838Z,100208.03
2022-10-08T21:01:41.141Z,100201.16
2022-10-08T21:04:08.196Z,100204.38
2022-10-08T21:06:43.599Z,100212.19
2022-10-08T21:09:12.699Z,100208.00
2022-10-08T21:11:40.099Z,100207.03
2022-10-08T21:14:10.082Z,100213.13
2022-10-08T21:16:39.925Z,100211.66
2022-10-08T21:19:11.241Z,100217.66
2022-10-08T21:21:38.424Z,100223.25
2022-10-08T21:24:08.267Z,100221.94
2022-10-08T21:26:37.984Z,100224.28
2022-10-08T21:29:11.283Z,100227.09
2022-10-08T21:31:40.078Z,100222.59
2022-10-08T21:34:07.590Z,100221.50
2022-10-08T21:36:37.448Z,100225.28
2022-10-08T21:39:06.698Z,100222.47
2022-10-08T21:41:36.375Z,100225.28
2022-10-08T21:44:05.715Z,100231.63
2022-10-08T21:46:36.097Z,100240.94
2022-10-08T21:49:15.995Z,100245.56
2022-10-08T21:51:42.992Z,100252.41
2022-10-08T21:54:11.388Z,100255.00
2022-10-08T21:56:40.347Z,100256.50
2022-10-08T21:59:12.448Z,100252.84
2022-10-08T22:01:47.910Z,100252.84
2022-10-08T22:04:25.445Z,100247.25
2022-10-08T22:06:55.461Z,100252.31
2022-10-08T22:09:26.918Z,100250.28
2022-10-08T22:11:55.809Z,100259.41
2022-10-08T22:14:23.540Z,100248.97
2022-10-08T22:16:50.900Z,100246.84
2022-10-08T22:19:18.298Z,100247.72
2022-10-08T22:21:46.021Z,100244.91
2022-10-08T22:24:13.122Z,100254.03
2022-10-08T22:26:43.755Z,100240.00
2022-10-08T22:29:10.926Z,100246.53
2022-10-08T22:31:38.583Z,100252.66
2022-10-08T22:34:06.042Z,100260.91
2022-10-08T22:36:36.639Z,100271.09
2022-10-08T22:39:03.844Z,100271.66
2022-10-08T22:41:32.834Z,100261.88
2022-10-08T22:44:03.832Z,100262.41
2022-10-08T22:46:35.381Z,100272.59
2022-10-08T22:49:05.199Z,100274.66
2022-10-08T22:51:32.232Z,100263.50
2022-10-08T22:54:01.876Z,100280.88
2022-10-08T22:56:30.973Z,100281.84
2022-10-08T22:58:59.351Z,100285.91
2022-10-08T23:01:30.495Z,100281.41
2022-10-08T23:03:58.243Z,100284.31
2022-10-08T23:06:31.933Z,100289.13
2022-10-08T23:09:01.647Z,100295.47
2022-10-08T23:11:30.179Z,100301.38
2022-10-08T23:13:59.273Z,100295.78
2022-10-08T23:16:28.564Z,100294.50
2022-10-08T23:19:10.005Z,100281.63
2022-10-08T23:21:38.013Z,100289.69
2022-10-08T23:24:05.873Z,100293.00
2022-10-08T23:26:33.216Z,100297.81
2022-10-08T23:29:01.597Z,100308.03
2022-10-08T23:31:31.106Z,100313.59
2022-10-08T23:34:01.551Z,100322.41
2022-10-08T23:36:32.283Z,100321.53
2022-10-08T23:38:59.388Z,100317.00
2022-10-08T23:41:27.053Z,100312.31
2022-10-08T23:43:57.112Z,100321.44
2022-10-08T23:46:26.725Z,100332.59
2022-10-08T23:48:54.366Z,100339.66
2022-10-08T23:51:23.244Z,100352.78
2022-10-08T23:53:52.039Z,100349.00
2022-10-08T23:56:20.572Z,100344.72
2022-10-08T23:58:48.958Z,100358.78
